createdAt,value
2022-11-30T00:00:59.243Z,8.67
2022-11-30T00:03:26.354Z,8.68
2022-11-30T00:05:53.007Z,8.65
2022-11-30T00:08:19.493Z,8.62
2022-11-30T00:10:45.977Z,8.60
2022-11-30T00:13:12.413Z,8.60
2022-11-30T00:15:39.224Z,8.56
2022-11-30T00:18:05.674Z,8.56
2022-11-30T00:20:32.818Z,8.59
2022-11-30T00:22:59.209Z,8.62
2022-11-30T00:25:26.209Z,8.54
2022-11-30T00:27:52.922Z,8.50
2022-11-30T00:30:19.485Z,8.45
2022-11-30T00:32:45.959Z,8.41
2022-11-30T00:35:12.421Z,8.44
2022-11-30T00:37:38.912Z,8.47
2022-11-30T00:40:06.365Z,8.45
2022-11-30T00:42:32.838Z,8.42
2022-11-30T00:44:59.261Z,8.37
2022-11-30T00:47:25.733Z,8.38
2022-11-30T00:49:52.191Z,8.37
2022-11-30T00:52:18.607Z,8.37
2022-11-30T00:54:45.263Z,8.35
2022-11-30T00:57:12.225Z,8.38
2022-11-30T00:59:38.688Z,8.43
2022-11-30T01:02:05.162Z,8.43
2022-11-30T01:04:31.667Z,8.42
2022-11-30T01:06:58.080Z,8.41
2022-11-30T01:09:24.533Z,8.42
2022-11-30T01:11:50.955Z,8.41
2022-11-30T01:14:17.373Z,8.44
2022-11-30T01:16:43.902Z,8.47
2022-11-30T01:19:11.537Z,8.44
2022-11-30T01:21:38.432Z,8.40
2022-11-30T01:24:05.301Z,8.44
2022-11-30T01:26:31.764Z,8.44
2022-11-30T01:28:58.268Z,8.47
2022-11-30T01:31:25.238Z,8.48
2022-11-30T01:33:55.953Z,8.37
2022-11-30T01:36:25.840Z,8.32
2022-11-30T01:38:55.070Z,8.35
2022-11-30T01:41:30.747Z,8.36
2022-11-30T01:44:19.970Z,8.33
2022-11-30T01:47:11.657Z,8.26
2022-11-30T01:49:53.786Z,8.24
2022-11-30T01:52:25.395Z,8.20
2022-11-30T01:54:53.698Z,8.20
2022-11-30T01:57:31.380Z,8.29
2022-11-30T02:00:01.356Z,8.29
2022-11-30T02:02:43.863Z,8.28
2022-11-30T02:05:11.236Z,8.30
2022-11-30T02:07:38.056Z,8.30
2022-11-30T02:10:05.182Z,8.25
2022-11-30T02:13:04.164Z,8.20
2022-11-30T02:15:41.812Z,8.26
2022-11-30T02:18:14.825Z,8.25
2022-11-30T02:20:47.384Z,8.20
2022-11-30T02:23:29.130Z,8.19
2022-11-30T02:26:26.827Z,8.20
2022-11-30T02:29:25.259Z,8.19
2022-11-30T02:31:58.958Z,8.20
2022-11-30T02:34:29.791Z,8.19
2022-11-30T02:36:58.824Z,8.20
2022-11-30T02:39:25.379Z,8.21
2022-11-30T02:41:52.078Z,8.25
2022-11-30T02:44:21.387Z,8.31
2022-11-30T02:47:14.145Z,8.28
2022-11-30T02:49:43.253Z,8.23
2022-11-30T02:52:11.176Z,8.27
2022-11-30T02:54:38.033Z,8.24
2022-11-30T02:57:04.473Z,8.19
2022-11-30T02:59:30.945Z,8.19
2022-11-30T03:01:57.566Z,8.13
2022-11-30T03:04:24.102Z,8.11
2022-11-30T03:06:50.589Z,8.12
2022-11-30T03:09:17.049Z,8.07
2022-11-30T03:11:43.454Z,8.06
2022-11-30T03:14:10.006Z,8.11
2022-11-30T03:16:38.024Z,8.09
2022-11-30T03:19:05.477Z,8.08
2022-11-30T03:21:31.916Z,8.05
2022-11-30T03:23:58.390Z,8.07
2022-11-30T03:26:24.846Z,8.11
2022-11-30T03:28:51.356Z,8.11
2022-11-30T03:31:17.867Z,8.09
2022-11-30T03:33:44.364Z,8.01
2022-11-30T03:36:12.131Z,8.02
2022-11-30T03:38:39.030Z,7.99
2022-11-30T03:41:11.948Z,7.98
2022-11-30T03:43:38.404Z,7.95
2022-11-30T03:46:05.040Z,7.96
2022-11-30T03:48:31.711Z,8.02
2022-11-30T03:50:58.716Z,8.08
2022-11-30T03:53:25.535Z,8.12
2022-11-30T03:55:58.368Z,8.14
2022-11-30T03:58:25.612Z,8.18
2022-11-30T04:01:14.004Z,8.12
2022-11-30T04:03:41.038Z,8.05
2022-11-30T04:06:09.328Z,8.09
2022-11-30T04:08:37.371Z,8.11
2022-11-30T04:11:05.029Z,8.10
2022-11-30T04:13:33.080Z,8.05
2022-11-30T04:15:59.857Z,8.01
2022-11-30T04:18:28.582Z,8.00
2022-11-30T04:20:57.278Z,7.95
2022-11-30T04:23:25.359Z,7.94
2022-11-30T04:25:52.330Z,7.95
2022-11-30T04:28:19.527Z,7.95
2022-11-30T04:30:46.811Z,8.01
2022-11-30T04:33:15.137Z,8.01
2022-11-30T04:35:48.803Z,7.96
2022-11-30T04:38:15.299Z,7.90
2022-11-30T04:40:42.586Z,7.93
2022-11-30T04:43:10.258Z,7.93
2022-11-30T04:45:36.799Z,7.89
2022-11-30T04:48:06.417Z,7.88
2022-11-30T04:50:33.191Z,7.87
2022-11-30T04:52:59.811Z,7.98
2022-11-30T04:55:26.448Z,7.97
2022-11-30T04:57:52.924Z,7.89
2022-11-30T05:00:20.047Z,7.88
2022-11-30T05:02:52.476Z,7.91
2022-11-30T05:05:19.778Z,7.96
2022-11-30T05:07:58.874Z,7.98
2022-11-30T05:10:27.137Z,8.03
2022-11-30T05:12:53.929Z,8.03
2022-11-30T05:15:20.562Z,8.00
2022-11-30T05:17:47.767Z,7.97
2022-11-30T05:20:14.260Z,7.94
2022-11-30T05:22:40.722Z,7.90
2022-11-30T05:25:08.027Z,7.95
2022-11-30T05:27:35.352Z,7.95
2022-11-30T05:30:03.232Z,7.95
2022-11-30T05:32:29.780Z,7.92
2022-11-30T05:34:56.355Z,7.98
2022-11-30T05:37:22.974Z,7.92
2022-11-30T05:39:49.419Z,7.82
2022-11-30T05:42:15.851Z,7.80
2022-11-30T05:44:42.364Z,7.79
2022-11-30T05:47:09.142Z,7.70
2022-11-30T05:49:35.604Z,7.61
2022-11-30T05:52:02.044Z,7.52
2022-11-30T05:54:28.489Z,7.45
2022-11-30T05:56:55.438Z,7.41
2022-11-30T05:59:22.459Z,7.43
2022-11-30T06:01:51.447Z,7.42
2022-11-30T06:04:17.901Z,7.36
2022-11-30T06:06:44.308Z,7.33
2022-11-30T06:09:10.847Z,7.21
2022-11-30T06:11:37.248Z,7.11
2022-11-30T06:14:04.001Z,7.01
2022-11-30T06:16:30.484Z,6.98
2022-11-30T06:18:56.944Z,7.02
2022-11-30T06:21:24.861Z,7.11
2022-11-30T06:23:52.617Z,7.15
2022-11-30T06:26:19.140Z,7.00
2022-11-30T06:28:48.594Z,6.88
2022-11-30T06:31:16.078Z,6.86
2022-11-30T06:33:42.707Z,6.86
2022-11-30T06:36:09.473Z,6.83
2022-11-30T06:38:35.997Z,6.86
2022-11-30T06:41:07.750Z,6.85
2022-11-30T06:43:36.107Z,6.89
2022-11-30T06:46:03.701Z,6.86
2022-11-30T06:48:30.680Z,6.76
2022-11-30T06:50:57.304Z,6.66
2022-11-30T06:53:23.768Z,6.66
2022-11-30T06:55:50.217Z,6.74
2022-11-30T06:58:16.717Z,6.77
2022-11-30T07:00:43.266Z,6.76
2022-11-30T07:03:11.417Z,6.76
2022-11-30T07:05:46.242Z,6.77
2022-11-30T07:08:14.731Z,6.75
2022-11-30T07:10:45.953Z,6.71
2022-11-30T07:13:14.470Z,6.63
2022-11-30T07:15:41.898Z,6.57
2022-11-30T07:18:08.964Z,6.56
2022-11-30T07:20:37.060Z,6.55
2022-11-30T07:23:22.381Z,6.44
2022-11-30T07:26:09.641Z,6.37
2022-11-30T07:28:44.239Z,6.33
2022-11-30T07:31:16.972Z,6.40
2022-11-30T07:33:43.992Z,6.39
2022-11-30T07:36:11.180Z,6.39
2022-11-30T07:38:38.481Z,6.43
2022-11-30T07:41:05.650Z,6.42
2022-11-30T07:43:33.042Z,6.27
2022-11-30T07:46:00.516Z,6.17
2022-11-30T07:48:27.506Z,6.23
2022-11-30T07:50:54.298Z,6.26
2022-11-30T07:53:21.065Z,6.25
2022-11-30T07:55:48.939Z,6.38
2022-11-30T07:58:17.997Z,6.37
2022-11-30T08:00:44.425Z,6.31
2022-11-30T08:03:10.928Z,6.32
2022-11-30T08:05:37.388Z,6.28
2022-11-30T08:08:03.804Z,6.24
2022-11-30T08:10:30.224Z,6.25
2022-11-30T08:12:56.652Z,6.21
2022-11-30T08:15:28.965Z,6.18
2022-11-30T08:18:00.216Z,6.17
2022-11-30T08:20:26.694Z,6.13
2022-11-30T08:22:53.114Z,6.06
2022-11-30T08:25:19.598Z,5.92
2022-11-30T08:27:46.116Z,5.89
2022-11-30T08:30:12.924Z,5.92
2022-11-30T08:32:39.317Z,5.93
2022-11-30T08:35:06.324Z,5.93
2022-11-30T08:37:36.298Z,5.96
2022-11-30T08:40:03.635Z,6.03
2022-11-30T08:42:30.043Z,6.12
2022-11-30T08:44:56.450Z,6.21
2022-11-30T08:47:22.885Z,6.24
2022-11-30T08:49:49.365Z,6.23
2022-11-30T08:52:17.356Z,6.28
2022-11-30T08:54:47.409Z,6.38
2022-11-30T08:57:19.454Z,6.43
2022-11-30T08:59:46.500Z,6.70
2022-11-30T09:02:17.449Z,6.91
2022-11-30T09:04:44.075Z,7.19
2022-11-30T09:07:10.985Z,7.07
2022-11-30T09:09:37.876Z,7.07
2022-11-30T09:12:04.465Z,7.00
2022-11-30T09:14:31.102Z,7.03
2022-11-30T09:16:57.621Z,7.11
2022-11-30T09:19:25.276Z,7.19
2022-11-30T09:21:52.576Z,7.31
2022-11-30T09:24:20.569Z,7.45
2022-11-30T09:26:47.037Z,7.52
2022-11-30T09:29:13.544Z,7.59
2022-11-30T09:31:39.978Z,7.63
2022-11-30T09:34:06.403Z,7.64
2022-11-30T09:36:33.972Z,7.59
2022-11-30T09:39:00.739Z,7.62
2022-11-30T09:41:49.160Z,7.71
2022-11-30T09:44:54.607Z,7.85
2022-11-30T09:47:37.012Z,7.98
2022-11-30T09:50:25.995Z,8.00
2022-11-30T09:52:56.975Z,8.01
2022-11-30T09:55:44.267Z,8.00
2022-11-30T09:58:27.720Z,8.02
2022-11-30T10:00:54.204Z,8.04
2022-11-30T10:03:23.556Z,8.03
2022-11-30T10:05:56.624Z,8.04
2022-11-30T10:08:25.993Z,8.06
2022-11-30T10:11:15.008Z,8.12
2022-11-30T10:14:12.020Z,8.18
2022-11-30T10:16:59.279Z,8.27
2022-11-30T10:19:40.841Z,8.36
2022-11-30T10:22:18.412Z,8.51
2022-11-30T10:25:12.510Z,8.52
2022-11-30T10:27:52.545Z,8.50
2022-11-30T10:30:24.466Z,8.55
2022-11-30T10:32:56.018Z,8.50
2022-11-30T10:35:34.379Z,8.49
2022-11-30T10:38:12.206Z,8.50
2022-11-30T10:40:44.055Z,8.58
2022-11-30T10:43:30.573Z,8.66
2022-11-30T10:45:57.162Z,8.67
2022-11-30T10:48:47.239Z,8.67
2022-11-30T10:51:13.743Z,8.74
2022-11-30T10:53:40.264Z,8.78
2022-11-30T10:56:13.099Z,8.77
2022-11-30T10:59:00.757Z,8.85
2022-11-30T11:01:39.432Z,8.88
2022-11-30T11:04:17.107Z,8.92
2022-11-30T11:06:51.830Z,8.93
2022-11-30T11:09:31.412Z,8.96
2022-11-30T11:12:00.448Z,9.11
2022-11-30T11:14:28.673Z,9.16
2022-11-30T11:17:00.869Z,9.19
2022-11-30T11:19:40.190Z,9.21
2022-11-30T11:22:24.865Z,9.23
2022-11-30T11:25:19.275Z,9.05
2022-11-30T11:27:53.165Z,9.02
2022-11-30T11:30:30.383Z,9.07
2022-11-30T11:33:12.003Z,9.18
2022-11-30T11:35:47.033Z,9.34
2022-11-30T11:38:40.900Z,9.41
2022-11-30T11:41:17.108Z,9.50
2022-11-30T11:43:58.440Z,9.55
2022-11-30T11:46:25.209Z,9.63
2022-11-30T11:49:01.674Z,9.62
2022-11-30T11:51:37.053Z,9.71
2022-11-30T11:54:35.429Z,9.86
2022-11-30T11:57:02.309Z,9.89
2022-11-30T11:59:56.992Z,10.06
2022-11-30T12:02:38.211Z,10.07
2022-11-30T12:05:17.341Z,9.81
2022-11-30T12:08:08.220Z,9.68
2022-11-30T12:10:53.734Z,9.68
2022-11-30T12:13:23.748Z,9.67
2022-11-30T12:16:11.801Z,9.75
2022-11-30T12:18:50.381Z,9.83
2022-11-30T12:21:24.987Z,9.81
2022-11-30T12:24:17.692Z,9.78
2022-11-30T12:26:48.272Z,9.77
2022-11-30T12:29:43.488Z,9.84
2022-11-30T12:32:12.882Z,9.84
2022-11-30T12:35:14.577Z,9.79
2022-11-30T12:37:47.849Z,9.77
2022-11-30T12:40:52.588Z,9.81
2022-11-30T12:43:19.057Z,9.82
2022-11-30T12:45:47.463Z,9.82
2022-11-30T12:48:34.774Z,9.90
2022-11-30T12:51:07.034Z,9.86
2022-11-30T12:53:53.585Z,9.91
2022-11-30T12:56:29.185Z,9.90
2022-11-30T12:59:21.957Z,9.97
2022-11-30T13:02:03.260Z,9.94
2022-11-30T13:04:40.041Z,9.73
2022-11-30T13:07:17.907Z,9.67
2022-11-30T13:09:53.727Z,9.71
2022-11-30T13:12:35.840Z,9.91
2022-11-30T13:15:16.168Z,9.92
2022-11-30T13:17:43.813Z,9.71
2022-11-30T13:20:20.329Z,9.54
2022-11-30T13:22:59.603Z,9.57
2022-11-30T13:26:07.941Z,9.67
2022-11-30T13:28:41.048Z,9.84
2022-11-30T13:31:28.917Z,9.83
2022-11-30T13:33:55.392Z,9.85
2022-11-30T13:36:46.159Z,9.85
2022-11-30T13:39:16.371Z,9.86
2022-11-30T13:41:46.273Z,9.89
2022-11-30T13:44:30.206Z,9.85
2022-11-30T13:46:57.127Z,9.88
2022-11-30T13:49:28.458Z,9.92
2022-11-30T13:52:20.590Z,10.01
2022-11-30T13:54:41.605Z,9.98
2022-11-30T13:57:30.027Z,9.82
2022-11-30T14:00:01.618Z,9.90
2022-11-30T14:02:36.357Z,10.02
2022-11-30T14:05:18.201Z,9.90
2022-11-30T14:07:51.873Z,9.84
2022-11-30T14:10:29.237Z,9.76
2022-11-30T14:13:04.185Z,9.60
2022-11-30T14:15:40.773Z,9.54
2022-11-30T14:18:10.309Z,9.47
2022-11-30T14:20:44.943Z,9.48
2022-11-30T14:23:26.102Z,9.40
2022-11-30T14:25:55.264Z,9.40
2022-11-30T14:28:25.724Z,9.38
2022-11-30T14:30:54.765Z,9.44
2022-11-30T14:33:32.108Z,9.47
2022-11-30T14:36:00.457Z,9.35
2022-11-30T14:38:31.431Z,9.35
2022-11-30T14:40:58.198Z,9.40
2022-11-30T14:43:25.182Z,9.33
2022-11-30T14:46:04.600Z,9.28
2022-11-30T14:48:33.627Z,9.24
2022-11-30T14:51:03.728Z,9.16
2022-11-30T14:53:45.930Z,9.13
2022-11-30T14:56:22.190Z,9.12
2022-11-30T14:58:55.899Z,9.30
2022-11-30T15:01:26.565Z,9.23
2022-11-30T15:03:57.047Z,9.12
2022-11-30T15:06:33.586Z,8.99
2022-11-30T15:09:01.744Z,8.95
2022-11-30T15:11:28.726Z,8.85
2022-11-30T15:13:57.437Z,8.80
2022-11-30T15:16:23.876Z,8.73
2022-11-30T15:18:51.484Z,8.66
2022-11-30T15:21:32.504Z,8.62
2022-11-30T15:24:02.093Z,8.55
2022-11-30T15:26:37.877Z,8.47
2022-11-30T15:29:16.783Z,8.44
2022-11-30T15:31:45.806Z,8.40
2022-11-30T15:34:21.991Z,8.34
2022-11-30T15:36:48.778Z,8.31
2022-11-30T15:39:20.949Z,8.35
2022-11-30T15:41:53.380Z,8.24
2022-11-30T15:44:39.227Z,8.14
2022-11-30T15:47:22.822Z,8.16
2022-11-30T15:49:55.784Z,8.19
2022-11-30T15:52:27.939Z,8.17
2022-11-30T15:55:03.675Z,8.23
2022-11-30T15:57:59.999Z,8.27
2022-11-30T16:00:26.611Z,8.16
2022-11-30T16:03:13.300Z,8.14
2022-11-30T16:05:40.246Z,8.16
2022-11-30T16:08:15.569Z,8.20
2022-11-30T16:10:43.694Z,8.18
2022-11-30T16:13:18.907Z,8.18
2022-11-30T16:15:48.362Z,8.16
2022-11-30T16:18:19.126Z,8.17
2022-11-30T16:20:48.862Z,8.26
2022-11-30T16:23:16.582Z,8.26
2022-11-30T16:25:44.228Z,8.21
2022-11-30T16:28:12.485Z,8.12
2022-11-30T16:30:40.169Z,8.10
2022-11-30T16:33:13.368Z,8.03
2022-11-30T16:35:53.807Z,7.96
2022-11-30T16:38:21.087Z,8.00
2022-11-30T16:40:47.611Z,8.00
2022-11-30T16:43:14.881Z,8.08
2022-11-30T16:45:43.857Z,8.01
2022-11-30T16:48:10.288Z,8.02
2022-11-30T16:50:37.239Z,8.02
2022-11-30T16:53:04.920Z,8.01
2022-11-30T16:55:34.725Z,8.03
2022-11-30T16:58:01.922Z,8.07
2022-11-30T17:00:28.408Z,8.05
2022-11-30T17:03:01.693Z,7.99
2022-11-30T17:05:28.518Z,7.94
2022-11-30T17:07:55.272Z,7.85
2022-11-30T17:10:21.858Z,7.85
2022-11-30T17:12:48.683Z,7.85
2022-11-30T17:15:19.034Z,7.84
2022-11-30T17:17:45.650Z,7.76
2022-11-30T17:20:13.908Z,7.74
2022-11-30T17:22:41.108Z,7.73
2022-11-30T17:25:13.453Z,7.65
2022-11-30T17:27:40.030Z,7.57
2022-11-30T17:30:07.198Z,7.54
2022-11-30T17:32:33.874Z,7.48
2022-11-30T17:35:00.295Z,7.41
2022-11-30T17:37:26.853Z,7.42
2022-11-30T17:39:53.286Z,7.41
2022-11-30T17:42:19.829Z,7.39
2022-11-30T17:44:46.866Z,7.37
2022-11-30T17:47:13.716Z,7.31
2022-11-30T17:49:40.421Z,7.31
2022-11-30T17:52:06.916Z,7.32
2022-11-30T17:54:33.338Z,7.37
2022-11-30T17:56:59.969Z,7.35
2022-11-30T17:59:26.462Z,7.27
2022-11-30T18:01:52.940Z,7.12
2022-11-30T18:04:19.450Z,6.75
2022-11-30T18:06:46.033Z,6.52
2022-11-30T18:09:12.472Z,6.25
2022-11-30T18:11:39.192Z,5.91
2022-11-30T18:14:05.667Z,5.71
2022-11-30T18:16:36.516Z,5.58
2022-11-30T18:19:11.836Z,5.55
2022-11-30T18:21:44.099Z,5.60
2022-11-30T18:24:12.181Z,5.70
2022-11-30T18:26:39.493Z,5.81
2022-11-30T18:29:07.492Z,5.79
2022-11-30T18:31:34.183Z,5.92
2022-11-30T18:34:03.392Z,6.05
2022-11-30T18:36:30.905Z,5.99
2022-11-30T18:38:58.080Z,5.95
2022-11-30T18:41:26.173Z,5.85
2022-11-30T18:43:56.059Z,5.80
2022-11-30T18:46:22.767Z,5.85
2022-11-30T18:48:50.440Z,5.91
2022-11-30T18:51:20.056Z,5.99
2022-11-30T18:53:46.692Z,5.97
2022-11-30T18:56:15.974Z,6.06
2022-11-30T18:58:42.834Z,6.21
2022-11-30T19:01:13.064Z,6.15
2022-11-30T19:03:40.182Z,6.11
2022-11-30T19:06:08.290Z,6.12
2022-11-30T19:08:35.220Z,6.16
2022-11-30T19:11:06.283Z,6.23
2022-11-30T19:13:33.493Z,6.21
2022-11-30T19:16:18.128Z,6.21
2022-11-30T19:18:47.489Z,6.22
2022-11-30T19:21:16.777Z,6.27
2022-11-30T19:23:43.427Z,6.25
2022-11-30T19:26:11.108Z,6.29
2022-11-30T19:28:38.774Z,6.27
2022-11-30T19:31:09.538Z,6.17
2022-11-30T19:33:37.854Z,6.19
2022-11-30T19:36:07.055Z,6.23
2022-11-30T19:38:33.725Z,6.26
2022-11-30T19:41:08.779Z,6.24
2022-11-30T19:43:35.788Z,6.23
2022-11-30T19:46:07.626Z,6.22
2022-11-30T19:48:34.320Z,6.12
2022-11-30T19:51:05.839Z,6.12
2022-11-30T19:53:32.792Z,6.09
2022-11-30T19:55:59.315Z,6.05
2022-11-30T19:58:25.868Z,6.04
2022-11-30T20:00:52.297Z,6.01
2022-11-30T20:03:19.879Z,6.03
2022-11-30T20:05:50.409Z,6.03
2022-11-30T20:08:17.452Z,6.05
2022-11-30T20:10:44.509Z,6.09
2022-11-30T20:13:11.394Z,6.09
2022-11-30T20:15:39.383Z,5.97
2022-11-30T20:18:07.441Z,5.91
2022-11-30T20:20:34.788Z,5.90
2022-11-30T20:23:01.401Z,5.86
2022-11-30T20:25:30.740Z,5.81
2022-11-30T20:27:57.279Z,5.74
2022-11-30T20:30:23.757Z,5.72
2022-11-30T20:32:50.329Z,5.81
2022-11-30T20:35:16.803Z,5.81
2022-11-30T20:37:43.263Z,5.83
2022-11-30T20:40:10.443Z,6.01
2022-11-30T20:42:36.893Z,6.06
2022-11-30T20:45:03.548Z,6.15
2022-11-30T20:47:35.186Z,6.25
2022-11-30T20:50:02.488Z,6.33
2022-11-30T20:52:28.952Z,6.39
2022-11-30T20:54:55.404Z,6.45
2022-11-30T20:57:21.901Z,6.47
2022-11-30T20:59:48.297Z,6.48
2022-11-30T21:02:14.767Z,6.43
2022-11-30T21:04:41.285Z,6.41
2022-11-30T21:07:07.779Z,6.39
2022-11-30T21:09:34.229Z,6.47
2022-11-30T21:12:00.727Z,6.55
2022-11-30T21:14:27.272Z,6.59
2022-11-30T21:16:53.736Z,6.61
2022-11-30T21:19:20.237Z,6.61
2022-11-30T21:21:46.646Z,6.65
2022-11-30T21:24:13.180Z,6.64
2022-11-30T21:26:41.604Z,6.64
2022-11-30T21:29:12.312Z,6.63
2022-11-30T21:31:39.096Z,6.66
2022-11-30T21:34:05.883Z,6.64
2022-11-30T21:36:32.761Z,6.67
2022-11-30T21:39:06.945Z,6.66
2022-11-30T21:41:38.635Z,6.70
2022-11-30T21:44:06.704Z,6.68
2022-11-30T21:46:33.843Z,6.71
2022-11-30T21:49:00.615Z,6.74
2022-11-30T21:51:29.426Z,6.75
2022-11-30T21:53:58.833Z,6.74
2022-11-30T21:56:30.199Z,6.69
2022-11-30T21:58:58.804Z,6.63
2022-11-30T22:01:31.309Z,6.61
2022-11-30T22:03:59.379Z,6.65
2022-11-30T22:06:27.925Z,6.68
2022-11-30T22:08:57.291Z,6.68
2022-11-30T22:11:23.763Z,6.74
2022-11-30T22:13:52.624Z,6.72
2022-11-30T22:16:20.702Z,6.73
2022-11-30T22:18:47.721Z,6.73
2022-11-30T22:21:19.811Z,6.73
2022-11-30T22:23:49.205Z,6.75
2022-11-30T22:26:18.878Z,6.74
2022-11-30T22:28:49.309Z,6.75
2022-11-30T22:31:19.111Z,6.74
2022-11-30T22:33:46.278Z,6.72
2022-11-30T22:36:18.073Z,6.73
2022-11-30T22:38:45.402Z,6.74
2022-11-30T22:41:15.317Z,6.78
2022-11-30T22:43:43.258Z,6.85
2022-11-30T22:46:12.226Z,6.87
2022-11-30T22:48:39.097Z,6.80
2022-11-30T22:51:16.876Z,6.77
2022-11-30T22:53:43.428Z,6.75
2022-11-30T22:56:18.315Z,6.69
2022-11-30T22:58:47.183Z,6.76
2022-11-30T23:01:24.908Z,6.75
2022-11-30T23:03:59.051Z,6.74
2022-11-30T23:06:25.612Z,6.71
2022-11-30T23:08:52.806Z,6.69
2022-11-30T23:11:21.738Z,6.65
2022-11-30T23:13:48.636Z,6.63
2022-11-30T23:16:16.007Z,6.65
2022-11-30T23:18:50.977Z,6.63
2022-11-30T23:21:22.473Z,6.53
2022-11-30T23:23:49.629Z,6.44
2022-11-30T23:26:25.988Z,6.41
2022-11-30T23:28:53.964Z,6.43
2022-11-30T23:31:34.266Z,6.46
2022-11-30T23:34:04.782Z,6.42
2022-11-30T23:36:32.012Z,6.50
2022-11-30T23:39:01.666Z,6.52
2022-11-30T23:41:28.751Z,6.50
2022-11-30T23:43:55.419Z,6.51
2022-11-30T23:46:22.258Z,6.50
2022-11-30T23:48:48.744Z,6.50
2022-11-30T23:51:15.219Z,6.51
2022-11-30T23:53:41.659Z,6.57
2022-11-30T23:56:11.854Z,6.54
2022-11-30T23:58:39.635Z,6.56
